Time;durP1;ratioP1;P1;durP2;ratioP2;P2;SDS_P1;SDS_P2;PMS_P1;PMS_P2;Temp;Humidity;BMP_temperature;BMP_pressure;BME280_temperature;BME280_humidity;BME280_pressure;Samples;Min_cycle;Max_cycle;Signal;HPM_P1;HPM_P2
2024/01/22 00:02:08;;;;;;;6.85;2.05;;;;;;;2.91;100.00;99493.09;5070625;28;20020;-56
2024/01/22 00:04:34;;;;;;;7.72;2.30;;;;;;;3.04;100.00;99497.22;5073544;28;20383;-56
2024/01/22 00:06:59;;;;;;;7.57;2.70;;;;;;;3.02;100.00;99487.66;5071577;28;20048;-56
2024/01/22 00:09:25;;;;;;;9.63;2.50;;;;;;;3.08;100.00;99495.94;5069821;28;20031;-56
2024/01/22 00:11:50;;;;;;;9.20;2.55;;;;;;;3.16;100.00;99491.75;5072190;28;20217;-56
2024/01/22 00:14:15;;;;;;;5.60;2.15;;;;;;;3.15;100.00;99488.25;5072335;28;20032;-56
2024/01/22 00:16:41;;;;;;;9.18;2.33;;;;;;;3.06;100.00;99478.34;5071689;28;20103;-56
2024/01/22 00:19:09;;;;;;;5.53;2.67;;;;;;;3.09;100.00;99486.09;5071612;28;20123;-56
2024/01/22 00:21:34;;;;;;;4.83;2.30;;;;;;;3.05;100.00;99469.50;5071222;28;20103;-56
2024/01/22 00:24:00;;;;;;;5.35;2.47;;;;;;;3.05;100.00;99469.50;5070546;28;20107;-57
2024/01/22 00:26:26;;;;;;;8.65;3.15;;;;;;;3.07;100.00;99461.34;5072299;28;20093;-57
2024/01/22 00:28:52;;;;;;;10.15;2.80;;;;;;;2.99;100.00;99462.03;5072845;28;20036;-57
2024/01/22 00:31:17;;;;;;;13.45;2.90;;;;;;;2.93;100.00;99453.72;5071010;28;20020;-57
2024/01/22 00:33:43;;;;;;;9.90;2.83;;;;;;;2.85;100.00;99449.06;5071588;28;20036;-57
2024/01/22 00:36:15;;;;;;;7.72;2.58;;;;;;;2.89;100.00;99455.00;5072307;28;20357;-57
2024/01/22 00:38:41;;;;;;;5.75;2.40;;;;;;;2.91;100.00;99450.34;5068163;28;20460;-57
2024/01/22 00:41:07;;;;;;;4.10;1.77;;;;;;;2.86;100.00;99448.09;5052924;28;20021;-57
2024/01/22 00:43:33;;;;;;;6.45;1.92;;;;;;;2.90;100.00;99446.00;5070229;28;20017;-57
2024/01/22 00:46:00;;;;;;;4.57;1.73;;;;;;;2.91;100.00;99445.00;5072186;28;20464;-57
2024/01/22 00:48:25;;;;;;;8.57;2.03;;;;;;;3.05;100.00;99436.59;5072243;28;20218;-57
2024/01/22 00:50:51;;;;;;;3.33;1.42;;;;;;;3.12;100.00;99424.34;5068105;28;20119;-57
2024/01/22 00:53:16;;;;;;;3.50;1.70;;;;;;;2.98;100.00;99411.38;5071033;28;20146;-57
2024/01/22 00:55:42;;;;;;;7.47;1.70;;;;;;;2.89;100.00;99409.56;5072466;28;20024;-57
2024/01/22 00:58:07;;;;;;;5.35;1.80;;;;;;;2.95;100.00;99395.63;5072303;28;20016;-57
2024/01/22 01:00:32;;;;;;;8.60;2.17;;;;;;;2.77;100.00;99382.13;5069732;28;20028;-57
2024/01/22 01:02:58;;;;;;;5.95;1.73;;;;;;;2.77;100.00;99382.97;5071031;28;20129;-57
2024/01/22 01:05:23;;;;;;;7.05;1.75;;;;;;;2.96;100.00;99389.28;5054756;28;20028;-56
2024/01/22 01:07:49;;;;;;;4.40;1.52;;;;;;;3.10;100.00;99396.91;5073327;28;20032;-57
2024/01/22 01:10:14;;;;;;;5.13;1.70;;;;;;;2.95;100.00;99390.28;5074603;28;20115;-57
2024/01/22 01:12:40;;;;;;;7.95;2.00;;;;;;;2.88;100.00;99387.31;5057808;28;20073;-56
2024/01/22 01:15:06;;;;;;;6.05;1.55;;;;;;;2.77;100.00;99393.66;5075729;28;20095;-57
2024/01/22 01:17:32;;;;;;;4.13;1.80;;;;;;;2.79;100.00;99397.03;5074288;28;20077;-57
2024/01/22 01:19:57;;;;;;;3.80;1.90;;;;;;;2.68;100.00;99393.66;5073304;28;20028;-56
2024/01/22 01:22:23;;;;;;;2.58;1.48;;;;;;;2.48;100.00;99395.44;5075101;28;20043;-56
2024/01/22 01:24:48;;;;;;;3.88;1.55;;;;;;;2.30;100.00;99390.75;5075234;28;20024;-57
2024/01/22 01:27:16;;;;;;;3.22;1.40;;;;;;;2.13;100.00;99389.56;5074399;28;20016;-57
2024/01/22 01:29:42;;;;;;;3.45;2.03;;;;;;;1.98;100.00;99380.25;5074723;28;20028;-57
2024/01/22 01:32:07;;;;;;;3.78;1.58;;;;;;;1.85;100.00;99385.81;5074253;28;20403;-56
2024/01/22 01:34:32;;;;;;;2.92;1.48;;;;;;;1.92;100.00;99381.63;5071995;28;20034;-57
2024/01/22 01:36:58;;;;;;;4.13;1.52;;;;;;;1.88;100.00;99374.84;5075900;28;20104;-56
2024/01/22 01:39:23;;;;;;;6.03;1.98;;;;;;;1.90;100.00;99372.91;5075040;28;20047;-56
2024/01/22 01:41:49;;;;;;;5.95;1.63;;;;;;;1.92;100.00;99370.94;5074689;28;20031;-56
2024/01/22 01:44:15;;;;;;;7.03;2.20;;;;;;;2.15;100.00;99373.44;5075163;28;20025;-57
2024/01/22 01:46:40;;;;;;;6.10;2.28;;;;;;;2.29;100.00;99366.88;5074937;28;20020;-56
2024/01/22 01:49:07;;;;;;;5.25;2.00;;;;;;;2.30;100.00;99369.38;5075584;28;20077;-56
2024/01/22 01:51:32;;;;;;;3.38;2.05;;;;;;;2.21;100.00;99370.22;5073233;28;20032;-56
2024/01/22 01:54:01;;;;;;;4.93;1.67;;;;;;;2.16;100.00;99372.44;5070768;28;20504;-57
2024/01/22 01:56:27;;;;;;;5.25;1.90;;;;;;;2.14;100.00;99372.56;5073892;28;20027;-56
2024/01/22 01:58:54;;;;;;;6.25;1.80;;;;;;;2.03;100.00;99375.34;5074114;28;20032;-56
2024/01/22 02:01:19;;;;;;;4.07;1.65;;;;;;;2.02;100.00;99357.66;5074997;28;20036;-58
2024/01/22 02:03:45;;;;;;;2.67;1.48;;;;;;;2.09;100.00;99358.78;5078214;28;20027;-60
2024/01/22 02:06:11;;;;;;;3.83;1.67;;;;;;;2.18;100.00;99359.81;5076214;28;20025;-56
2024/01/22 02:08:36;;;;;;;4.72;1.90;;;;;;;2.25;100.00;99360.09;5077096;28;20025;-57
2024/01/22 02:11:02;;;;;;;3.92;1.88;;;;;;;2.16;100.00;99361.75;5075508;28;20029;-56
2024/01/22 02:13:28;;;;;;;4.25;1.67;;;;;;;2.10;100.00;99356.97;5076316;28;20025;-56
2024/01/22 02:15:57;;;;;;;2.67;1.35;;;;;;;2.11;100.00;99364.84;5074693;28;20388;-62
2024/01/22 02:18:22;;;;;;;3.35;1.50;;;;;;;2.12;100.00;99369.22;5073563;28;20464;-63
2024/01/22 02:20:48;;;;;;;3.63;1.58;;;;;;;2.09;100.00;99366.78;5073687;28;20077;-57
2024/01/22 02:23:13;;;;;;;3.05;1.30;;;;;;;1.98;100.00;99365.06;5072510;28;20384;-62
2024/01/22 02:25:38;;;;;;;3.80;1.70;;;;;;;1.95;100.00;99368.00;5075337;28;20046;-61
2024/01/22 02:28:04;;;;;;;4.40;1.60;;;;;;;2.07;100.00;99352.75;5077476;28;20017;-66
2024/01/22 02:30:29;;;;;;;6.43;1.63;;;;;;;2.26;100.00;99367.97;5073090;28;20048;-62
2024/01/22 02:32:55;;;;;;;2.63;1.50;;;;;;;2.16;100.00;99364.44;5076247;28;20020;-57
2024/01/22 02:35:21;;;;;;;4.00;1.42;;;;;;;2.12;100.00;99355.88;5076574;28;20024;-59
2024/01/22 02:37:47;;;;;;;5.07;1.80;;;;;;;2.13;100.00;99352.19;5072600;28;20021;-57
2024/01/22 02:40:12;;;;;;;7.28;1.70;;;;;;;1.96;100.00;99332.34;5074836;28;20028;-61
2024/01/22 02:42:38;;;;;;;3.30;1.60;;;;;;;2.03;100.00;99355.81;5076255;28;20016;-61
2024/01/22 02:45:03;;;;;;;2.28;1.40;;;;;;;1.96;100.00;99344.84;5076770;28;20077;-57
2024/01/22 02:47:29;;;;;;;3.17;1.17;;;;;;;1.94;100.00;99342.31;5067919;28;20090;-59
2024/01/22 02:49:54;;;;;;;2.90;1.30;;;;;;;1.95;100.00;99348.50;5075515;28;20021;-60
2024/01/22 02:52:20;;;;;;;3.45;1.70;;;;;;;1.93;100.00;99351.28;5074584;28;20040;-56
2024/01/22 02:54:46;;;;;;;5.03;1.60;;;;;;;1.80;100.00;99334.66;5073315;28;20024;-57
2024/01/22 02:57:11;;;;;;;3.53;1.73;;;;;;;1.75;100.00;99336.88;5071539;28;20028;-57
2024/01/22 02:59:46;;;;;;;3.38;1.50;;;;;;;1.71;100.00;99328.31;5073974;28;20022;-56
2024/01/22 03:02:12;;;;;;;2.85;1.30;;;;;;;1.61;100.00;99339.94;5071973;28;20021;-56
2024/01/22 03:04:38;;;;;;;5.88;1.70;;;;;;;1.69;100.00;99330.28;5072460;28;20157;-57
2024/01/22 03:07:03;;;;;;;6.90;1.58;;;;;;;1.63;100.00;99335.31;5072320;28;20136;-57
2024/01/22 03:09:29;;;;;;;4.47;1.65;;;;;;;1.61;100.00;99332.78;5071853;28;20105;-57
2024/01/22 03:11:54;;;;;;;6.28;1.55;;;;;;;1.57;100.00;99334.00;5072819;28;20032;-57
2024/01/22 03:14:19;;;;;;;3.50;1.58;;;;;;;1.52;100.00;99329.09;5071682;28;20070;-56
2024/01/22 03:16:45;;;;;;;4.13;1.73;;;;;;;1.43;100.00;99329.88;5072246;28;20028;-56
2024/01/22 03:19:10;;;;;;;4.35;1.45;;;;;;;1.37;100.00;99319.75;5072568;28;20031;-56
2024/01/22 03:21:35;;;;;;;3.33;1.40;;;;;;;1.31;100.00;99322.94;5074149;28;20097;-56
2024/01/22 03:24:01;;;;;;;4.65;1.70;;;;;;;1.35;100.00;99313.69;5073381;28;20020;-56
2024/01/22 03:26:26;;;;;;;5.03;1.67;;;;;;;1.42;100.00;99298.03;5071295;28;20074;-56
2024/01/22 03:28:53;;;;;;;3.63;1.70;;;;;;;1.72;100.00;99300.66;5070014;28;20041;-56
2024/01/22 03:31:32;;;;;;;9.35;1.92;;;;;;;1.82;100.00;99299.88;5072548;28;20035;-56
2024/01/22 03:33:58;;;;;;;6.57;2.20;;;;;;;1.89;100.00;99301.84;5072484;28;20024;-56
2024/01/22 03:36:25;;;;;;;3.72;1.80;;;;;;;1.84;100.00;99292.56;5071978;28;20103;-56
2024/01/22 03:38:51;;;;;;;5.18;1.60;;;;;;;1.86;100.00;99286.13;5073369;28;20039;-56
2024/01/22 03:41:16;;;;;;;4.18;2.00;;;;;;;1.92;100.00;99282.91;5073697;28;20055;-56
2024/01/22 03:43:42;;;;;;;3.78;1.83;;;;;;;1.83;100.00;99272.19;5053764;28;20064;-55
2024/01/22 03:46:12;;;;;;;4.18;1.60;;;;;;;1.97;100.00;99293.16;5071566;28;20036;-56
2024/01/22 03:48:37;;;;;;;7.35;1.75;;;;;;;2.09;100.00;99296.56;5073714;28;20549;-56
2024/01/22 03:51:04;;;;;;;4.10;1.85;;;;;;;1.94;100.00;99283.63;5073008;28;20036;-56
2024/01/22 03:53:29;;;;;;;3.92;1.67;;;;;;;2.05;100.00;99295.16;5053928;28;20487;-56
2024/01/22 03:55:55;;;;;;;3.05;1.50;;;;;;;2.16;100.00;99287.03;5072933;28;20048;-56
2024/01/22 03:58:20;;;;;;;3.85;1.80;;;;;;;2.31;100.00;99285.66;5071753;28;20031;-56
2024/01/22 04:00:46;;;;;;;2.78;1.50;;;;;;;2.39;100.00;99276.94;5069451;28;20103;-56
2024/01/22 04:03:11;;;;;;;4.90;1.95;;;;;;;2.50;100.00;99274.13;5072515;28;20028;-55
2024/01/22 04:05:37;;;;;;;3.40;1.55;;;;;;;2.51;100.00;99242.91;5073088;28;20047;-56
2024/01/22 04:08:04;;;;;;;3.88;1.50;;;;;;;2.60;100.00;99258.94;5071104;28;20473;-56
2024/01/22 04:10:29;;;;;;;4.43;1.63;;;;;;;2.60;100.00;99269.63;5070896;28;20040;-56
2024/01/22 04:12:55;;;;;;;3.97;1.60;;;;;;;2.63;100.00;99281.88;5072657;28;20024;-56
2024/01/22 04:15:21;;;;;;;4.43;1.50;;;;;;;2.60;100.00;99274.13;5071791;28;20162;-56
2024/01/22 04:17:46;;;;;;;3.83;1.73;;;;;;;2.60;100.00;99258.09;5069688;28;20025;-56
2024/01/22 04:20:11;;;;;;;5.13;1.77;;;;;;;2.65;100.00;99239.84;5071557;28;20042;-56
2024/01/22 04:22:37;;;;;;;3.00;1.70;;;;;;;2.71;100.00;99238.41;5072921;28;20476;-56
2024/01/22 04:25:03;;;;;;;5.35;1.50;;;;;;;2.76;100.00;99233.50;5072772;28;20036;-56
2024/01/22 04:27:28;;;;;;;5.18;2.03;;;;;;;2.75;100.00;99238.00;5067559;28;20067;-56
2024/01/22 04:29:54;;;;;;;2.42;1.42;;;;;;;2.80;100.00;99233.06;5062075;28;20071;-56
2024/01/22 04:32:19;;;;;;;5.13;1.75;;;;;;;2.89;100.00;99231.34;5067224;28;20041;-56
2024/01/22 04:34:46;;;;;;;3.92;1.70;;;;;;;2.93;100.00;99229.22;5068476;28;20063;-56
2024/01/22 04:37:12;;;;;;;4.60;1.80;;;;;;;3.04;100.00;99231.75;5063621;28;20076;-56
2024/01/22 04:39:39;;;;;;;2.85;1.60;;;;;;;3.05;100.00;99212.88;5071780;28;20020;-56
2024/01/22 04:42:05;;;;;;;3.38;1.83;;;;;;;3.22;100.00;99211.28;5071534;28;20036;-56
2024/01/22 04:44:30;;;;;;;3.88;1.50;;;;;;;3.36;100.00;99195.75;5068783;28;20059;-56
2024/01/22 04:46:57;;;;;;;5.50;1.52;;;;;;;3.28;100.00;99205.34;5067294;28;20021;-56
2024/01/22 04:49:22;;;;;;;4.00;1.38;;;;;;;3.27;100.00;99200.13;5063053;28;20667;-56
2024/01/22 04:51:48;;;;;;;5.32;1.92;;;;;;;3.33;100.00;99212.06;5069458;28;20021;-56
2024/01/22 04:54:13;;;;;;;2.88;1.42;;;;;;;3.42;100.00;99201.34;5072084;28;20039;-56
2024/01/22 04:56:45;;;;;;;3.05;1.60;;;;;;;3.54;100.00;99210.03;5052655;28;20024;-56
2024/01/22 04:59:10;;;;;;;4.97;1.60;;;;;;;3.55;100.00;99205.50;5064715;28;20039;-57
2024/01/22 05:01:36;;;;;;;3.80;1.67;;;;;;;3.43;100.00;99189.66;5069770;28;20021;-57
2024/01/22 05:04:02;;;;;;;4.05;1.58;;;;;;;3.52;100.00;99190.59;5069746;28;20028;-57
2024/01/22 05:06:28;;;;;;;3.38;1.50;;;;;;;3.57;100.00;99208.88;5065178;28;20033;-57
2024/01/22 05:08:54;;;;;;;3.85;1.40;;;;;;;3.56;100.00;99208.03;5062177;28;20041;-57
2024/01/22 05:11:19;;;;;;;2.60;1.50;;;;;;;3.55;100.00;99201.00;5070096;28;20039;-57
2024/01/22 05:13:52;;;;;;;2.65;1.45;;;;;;;3.53;100.00;99196.78;5068139;28;20024;-57
2024/01/22 05:16:18;;;;;;;8.13;1.75;;;;;;;3.53;100.00;99202.97;5063295;28;20066;-57
2024/01/22 05:18:44;;;;;;;3.58;1.30;;;;;;;3.69;100.00;99208.53;5071730;28;20047;-57
2024/01/22 05:21:10;;;;;;;3.67;1.45;;;;;;;3.64;100.00;99189.41;5071901;28;20051;-57
2024/01/22 05:23:36;;;;;;;4.78;1.42;;;;;;;3.68;100.00;99179.25;5065465;28;20033;-57
2024/01/22 05:26:01;;;;;;;3.28;1.80;;;;;;;3.71;100.00;99171.75;5069345;28;20032;-57
2024/01/22 05:28:26;;;;;;;1.88;1.10;;;;;;;3.78;100.00;99190.72;5071192;28;20027;-57
2024/01/22 05:30:52;;;;;;;2.65;1.48;;;;;;;3.72;100.00;99178.81;5118838;22;20393;-56
2024/01/22 05:33:17;;;;;;;3.22;1.40;;;;;;;3.77;100.00;99177.50;5045294;28;20418;-54
2024/01/22 05:35:44;;;;;;;11.70;4.55;;;;;;;3.84;100.00;99170.56;5053104;28;20017;-54
2024/01/22 05:38:10;;;;;;;4.15;1.83;;;;;;;3.90;100.00;99156.56;5047471;28;20029;-54
2024/01/22 05:40:35;;;;;;;2.42;1.40;;;;;;;4.01;100.00;99161.69;5045423;28;20775;-54
2024/01/22 05:43:42;;;;;;;7.10;1.70;;;;;;;4.07;100.00;99152.22;5044905;28;20021;-55
2024/01/22 05:46:07;;;;;;;2.83;1.35;;;;;;;4.11;100.00;99149.09;5045990;28;20024;-55
2024/01/22 05:48:33;;;;;;;4.40;1.40;;;;;;;4.18;100.00;99136.72;5053096;28;20029;-55
2024/01/22 05:50:58;;;;;;;3.83;1.58;;;;;;;4.14;100.00;99122.00;5045853;28;20057;-55
2024/01/22 05:56:45;;;;;;;6.22;1.58;;;;;;;4.31;100.00;99122.94;5052671;28;20082;-55
2024/01/22 05:59:10;;;;;;;3.80;2.03;;;;;;;4.45;100.00;99128.75;5054911;28;20029;-55
2024/01/22 06:01:36;;;;;;;5.35;1.52;;;;;;;4.55;100.00;99129.50;5050397;28;20353;-56
2024/01/22 06:04:04;;;;;;;2.97;1.30;;;;;;;4.67;100.00;99117.53;5053601;28;20083;-55
2024/01/22 06:06:29;;;;;;;2.28;1.05;;;;;;;4.65;100.00;99110.63;5052140;28;20017;-55
2024/01/22 06:08:54;;;;;;;3.05;1.33;;;;;;;4.78;100.00;99103.00;5056254;28;20036;-55
2024/01/22 06:11:20;;;;;;;3.20;1.70;;;;;;;4.79;100.00;99105.53;5051705;28;20495;-55
2024/01/22 06:13:46;;;;;;;2.85;1.17;;;;;;;4.88;100.00;99108.25;5050615;28;20028;-55
2024/01/22 06:16:12;;;;;;;2.65;1.40;;;;;;;4.94;100.00;99111.13;5046924;28;20068;-55
2024/01/22 06:18:39;;;;;;;3.88;1.50;;;;;;;4.90;100.00;99099.06;5033514;28;20025;-55
2024/01/22 06:21:06;;;;;;;6.80;1.25;;;;;;;4.95;100.00;99086.03;5052384;28;20056;-50
2024/01/22 06:23:32;;;;;;;4.07;1.48;;;;;;;5.15;100.00;99102.69;5036292;28;20056;-50
2024/01/22 06:25:58;;;;;;;3.85;1.33;;;;;;;5.37;100.00;99089.69;5052866;28;20036;-50
2024/01/22 06:28:29;;;;;;;4.03;1.55;;;;;;;5.30;100.00;99092.19;5051602;28;20031;-50
2024/01/22 06:30:54;;;;;;;2.97;1.35;;;;;;;5.34;100.00;99076.59;5049593;28;20055;-50
2024/01/22 06:33:21;;;;;;;3.67;1.13;;;;;;;5.46;100.00;99086.88;5053524;28;20472;-49
2024/01/22 06:35:52;;;;;;;3.88;1.30;;;;;;;5.38;100.00;99084.16;5054471;28;20466;-50
2024/01/22 06:38:17;;;;;;;2.55;1.20;;;;;;;5.35;100.00;99057.66;5054194;28;20013;-50
2024/01/22 06:40:46;;;;;;;2.83;1.10;;;;;;;5.46;100.00;99081.50;5052309;28;20095;-50
2024/01/22 06:43:13;;;;;;;4.13;1.52;;;;;;;5.46;100.00;99086.88;5053439;28;20474;-50
2024/01/22 06:45:38;;;;;;;2.97;1.13;;;;;;;5.48;100.00;99071.44;5049098;28;20039;-50
2024/01/22 06:48:04;;;;;;;2.63;1.30;;;;;;;5.51;100.00;99070.28;5052665;28;20468;-50
2024/01/22 06:50:32;;;;;;;1.65;1.30;;;;;;;5.45;100.00;99069.09;5035572;28;20532;-50
2024/01/22 06:52:57;;;;;;;3.95;1.50;;;;;;;5.43;100.00;99073.78;5054016;28;20108;-50
2024/01/22 06:55:25;;;;;;;4.97;1.85;;;;;;;5.34;100.00;99077.44;5054038;28;20107;-50
2024/01/22 06:57:51;;;;;;;3.78;1.58;;;;;;;5.21;100.00;99087.78;5050338;28;20025;-50
2024/01/22 07:00:54;;;;;;;2.45;1.25;;;;;;;5.22;100.00;99089.47;5047702;28;20440;-51
2024/01/22 07:03:20;;;;;;;6.88;1.80;;;;;;;5.16;100.00;99087.41;5053913;28;20036;-50
2024/01/22 07:05:46;;;;;;;8.23;1.90;;;;;;;5.20;100.00;99089.63;5054053;28;20028;-50
2024/01/22 07:08:12;;;;;;;2.47;1.75;;;;;;;5.19;100.00;99087.13;5055153;28;20079;-50
2024/01/22 07:10:40;;;;;;;4.00;1.98;;;;;;;5.17;100.00;99087.28;5053440;28;20044;-50
2024/01/22 07:13:06;;;;;;;5.53;1.65;;;;;;;5.24;100.00;99088.31;5053902;28;20113;-50
2024/01/22 07:15:31;;;;;;;3.33;1.23;;;;;;;5.33;100.00;99091.84;5053848;28;20115;-50
2024/01/22 07:17:57;;;;;;;5.78;1.55;;;;;;;5.33;100.00;99093.72;5047166;28;20017;-50
2024/01/22 07:20:24;;;;;;;4.88;1.58;;;;;;;5.36;100.00;99083.47;5051444;28;20024;-50
2024/01/22 07:22:49;;;;;;;3.70;1.85;;;;;;;5.52;100.00;99084.53;5052800;28;20036;-50
2024/01/22 07:25:15;;;;;;;3.72;1.35;;;;;;;5.57;100.00;99063.41;5054124;28;20037;-50
2024/01/22 07:27:42;;;;;;;2.85;1.35;;;;;;;5.62;100.00;99061.06;5051625;28;20100;-50
2024/01/22 07:30:23;;;;;;;1.98;1.25;;;;;;;5.90;100.00;99034.75;5049739;28;20032;-50
2024/01/22 07:32:48;;;;;;;2.05;1.17;;;;;;;6.06;100.00;99037.47;5053397;28;20043;-50
2024/01/22 07:35:14;;;;;;;1.75;1.08;;;;;;;6.28;100.00;99027.84;5054004;28;20519;-50
2024/01/22 07:37:42;;;;;;;2.08;0.90;;;;;;;6.48;100.00;99009.53;5050665;28;20021;-50
2024/01/22 07:40:11;;;;;;;4.57;1.08;;;;;;;6.71;100.00;98998.88;5034671;28;20048;-51
2024/01/22 07:42:38;;;;;;;3.03;1.00;;;;;;;7.22;100.00;99009.22;5053041;28;20791;-51
2024/01/22 07:45:05;;;;;;;3.47;0.98;;;;;;;7.16;100.00;98983.03;5052518;28;20027;-51
2024/01/22 07:47:31;;;;;;;2.22;0.98;;;;;;;7.22;100.00;99006.53;5051193;28;20059;-51
2024/01/22 07:49:57;;;;;;;3.20;0.90;;;;;;;7.22;100.00;99001.97;5052904;28;20037;-51
2024/01/22 07:52:23;;;;;;;4.20;2.13;;;;;;;7.24;100.00;99012.56;5052328;28;20025;-51
2024/01/22 07:54:54;;;;;;;2.20;1.20;;;;;;;7.18;100.00;99007.91;5031593;28;20667;-51
2024/01/22 07:57:19;;;;;;;3.10;1.10;;;;;;;7.19;100.00;98966.53;5053253;28;20399;-51
2024/01/22 07:59:46;;;;;;;3.67;1.20;;;;;;;7.21;100.00;98975.25;5052838;28;20031;-51
2024/01/22 08:02:11;;;;;;;2.28;1.00;;;;;;;7.24;100.00;98970.34;5054834;28;20107;-51
2024/01/22 08:04:37;;;;;;;3.47;1.27;;;;;;;7.43;98.92;98973.59;5031241;28;20099;-50
2024/01/22 08:07:03;;;;;;;5.43;1.20;;;;;;;7.47;98.00;98985.69;5034249;28;20044;-50
2024/01/22 08:09:32;;;;;;;2.80;1.10;;;;;;;7.55;97.91;98977.56;5052724;28;20029;-50
2024/01/22 08:11:57;;;;;;;2.15;1.13;;;;;;;7.46;98.69;98995.59;5053548;28;20028;-50
2024/01/22 08:14:24;;;;;;;1.55;0.80;;;;;;;7.44;98.46;98997.66;5051780;28;20040;-50
2024/01/22 08:16:49;;;;;;;1.83;0.93;;;;;;;7.55;98.25;99001.78;5044836;28;22665;-50
2024/01/22 08:19:16;;;;;;;2.35;1.13;;;;;;;7.56;98.60;98990.00;5048119;28;20067;-50
2024/01/22 08:21:41;;;;;;;2.53;1.08;;;;;;;7.58;98.97;98997.91;5048317;28;20476;-50
2024/01/22 08:24:07;;;;;;;1.80;1.05;;;;;;;7.55;99.65;98999.09;5042130;28;20029;-50
2024/01/22 08:26:32;;;;;;;1.90;0.90;;;;;;;7.58;100.00;98997.91;5043895;28;20025;-50
2024/01/22 08:28:58;;;;;;;3.00;0.82;;;;;;;7.57;100.00;98998.91;5029882;28;20021;-51
2024/01/22 08:31:23;;;;;;;2.75;1.25;;;;;;;7.52;100.00;98988.69;5044966;28;20503;-51
2024/01/22 08:33:49;;;;;;;1.42;0.85;;;;;;;7.53;100.00;98984.97;5044384;28;20031;-51
2024/01/22 08:36:17;;;;;;;3.00;1.00;;;;;;;7.59;100.00;98984.25;5047403;28;20171;-51
2024/01/22 08:38:43;;;;;;;3.38;1.05;;;;;;;7.59;100.00;98986.94;5052765;28;20028;-51
2024/01/22 08:41:08;;;;;;;1.45;0.70;;;;;;;7.65;100.00;98988.94;5033999;28;20032;-51
2024/01/22 08:43:34;;;;;;;2.30;0.95;;;;;;;7.67;100.00;98980.66;5053703;28;20029;-51
2024/01/22 08:49:15;;;;;;;2.28;1.00;;;;;;;7.93;100.00;98966.78;5089265;28;20047;-50
2024/01/22 08:51:40;;;;;;;2.88;0.98;;;;;;;8.04;100.00;98965.50;5091144;28;20016;-50
2024/01/22 08:54:06;;;;;;;1.80;0.82;;;;;;;8.09;100.00;98966.63;5080883;28;20138;-50
2024/01/22 08:56:31;;;;;;;1.80;0.70;;;;;;;8.11;100.00;98956.50;5061836;28;20028;-50
2024/01/22 08:58:57;;;;;;;3.10;1.00;;;;;;;8.17;100.00;98951.41;5071395;28;20033;-51
2024/01/22 09:01:23;;;;;;;2.78;1.30;;;;;;;8.18;100.00;98940.47;5068298;28;20036;-50
2024/01/22 09:03:48;;;;;;;1.73;0.75;;;;;;;8.15;100.00;98946.22;5059197;28;20055;-50
2024/01/22 09:06:14;;;;;;;3.30;1.13;;;;;;;8.08;100.00;98939.88;5065679;28;20035;-50
2024/01/22 09:08:40;;;;;;;2.65;0.80;;;;;;;7.93;100.00;98937.16;5064844;28;20029;-52
2024/01/22 09:11:06;;;;;;;3.30;0.77;;;;;;;7.96;100.00;98936.78;5066722;28;20035;-50
2024/01/22 09:13:31;;;;;;;2.38;0.82;;;;;;;7.92;100.00;98940.06;5067535;28;20024;-51
2024/01/22 09:15:57;;;;;;;2.60;1.02;;;;;;;7.88;100.00;98947.66;5065166;28;20039;-51
2024/01/22 09:18:23;;;;;;;3.22;0.98;;;;;;;7.87;100.00;98943.28;5050489;28;20028;-50
2024/01/22 09:20:51;;;;;;;1.90;1.10;;;;;;;8.01;100.00;98950.56;5070000;28;20036;-51
2024/01/22 09:23:17;;;;;;;4.35;1.30;;;;;;;7.98;100.00;98942.00;5051429;28;20029;-50
2024/01/22 09:25:43;;;;;;;2.53;1.20;;;;;;;8.10;100.00;98938.69;5066831;28;20036;-51
2024/01/22 09:28:08;;;;;;;2.20;1.17;;;;;;;8.10;100.00;98938.69;5066813;28;20028;-51
2024/01/22 09:30:34;;;;;;;2.92;1.25;;;;;;;8.15;100.00;98946.22;5067721;28;21854;-53
2024/01/22 09:32:59;;;;;;;3.63;1.48;;;;;;;8.06;100.00;98926.59;5079901;28;20119;-53
2024/01/22 09:35:26;;;;;;;5.07;1.10;;;;;;;7.93;100.00;98917.47;5071577;28;20028;-54
2024/01/22 09:37:52;;;;;;;2.00;1.00;;;;;;;8.03;100.00;98953.91;5053263;28;20017;-53
2024/01/22 09:40:18;;;;;;;5.07;1.70;;;;;;;7.83;100.00;98933.88;5072804;28;20028;-54
2024/01/22 09:42:44;;;;;;;3.55;1.30;;;;;;;7.76;100.00;98941.03;5062151;28;20038;-55
2024/01/22 09:45:10;;;;;;;2.40;1.02;;;;;;;7.85;100.00;98939.94;5071275;28;20085;-54
2024/01/22 09:47:37;;;;;;;4.53;0.90;;;;;;;8.13;100.00;98948.25;5072789;28;20200;-54
2024/01/22 09:50:03;;;;;;;1.92;0.80;;;;;;;8.49;100.00;98920.59;5073392;28;20043;-54
2024/01/22 09:52:33;;;;;;;1.73;0.65;;;;;;;8.81;100.00;98927.44;5056048;28;20070;-54
2024/01/22 09:54:59;;;;;;;0.65;0.35;;;;;;;9.20;100.00;98928.94;5071068;28;20031;-54
2024/01/22 09:57:27;;;;;;;2.70;0.43;;;;;;;9.55;100.00;98931.75;5052206;28;20032;-54
2024/01/22 09:59:53;;;;;;;0.98;0.38;;;;;;;9.80;100.00;98934.91;5069396;28;20027;-54
2024/01/22 10:02:19;;;;;;;0.73;0.45;;;;;;;10.03;100.00;98931.94;5070913;28;20059;-54
2024/01/22 10:04:45;;;;;;;1.33;0.47;;;;;;;10.18;100.00;98926.44;5070472;28;20074;-54
2024/01/22 10:07:15;;;;;;;1.48;0.52;;;;;;;10.20;100.00;98925.22;5067685;28;20139;-54
2024/01/22 10:09:41;;;;;;;0.52;0.32;;;;;;;10.29;100.00;98936.72;5067605;28;20025;-52
2024/01/22 10:12:07;;;;;;;2.15;0.50;;;;;;;10.31;100.00;98935.50;5053350;28;20020;-51
2024/01/22 10:14:35;;;;;;;2.80;0.73;;;;;;;10.28;100.00;98908.03;5064939;28;20548;-52
2024/01/22 10:17:20;;;;;;;1.88;0.63;;;;;;;10.41;100.00;98904.56;5070162;28;20031;-55
2024/01/22 10:19:49;;;;;;;3.40;0.73;;;;;;;10.52;100.00;98893.16;5064797;28;20090;-53
2024/01/22 10:22:22;;;;;;;1.70;0.55;;;;;;;10.68;100.00;98909.06;5066961;28;20792;-53
2024/01/22 10:25:01;;;;;;;1.65;0.47;;;;;;;10.61;100.00;98893.81;5050852;28;20071;-52
2024/01/22 10:27:26;;;;;;;0.60;0.40;;;;;;;10.61;100.00;98881.16;5085401;22;20048;-82
2024/01/22 10:29:52;;;;;;;0.60;0.20;;;;;;;10.56;100.00;98882.78;5080400;28;20338;-75
2024/01/22 10:32:24;;;;;;;0.55;0.30;;;;;;;10.64;100.00;98863.69;5070396;28;20040;-74
2024/01/22 10:34:53;;;;;;;4.35;0.60;;;;;;;10.49;100.00;98853.00;5072574;28;20017;-74
2024/01/22 10:37:19;;;;;;;1.20;0.25;;;;;;;10.66;100.00;98859.75;5078112;28;20040;-75
2024/01/22 10:39:47;;;;;;;1.10;0.50;;;;;;;10.56;100.00;98826.81;5078446;28;20075;-75
2024/01/22 10:42:15;;;;;;;5.45;0.38;;;;;;;10.91;100.00;98843.78;5081658;28;20095;-75
2024/01/22 10:44:45;;;;;;;2.20;0.50;;;;;;;10.93;100.00;98839.00;5082382;28;20094;-75
2024/01/22 10:47:14;;;;;;;2.63;0.47;;;;;;;10.99;100.00;98842.75;5077670;28;20055;-74
2024/01/22 10:49:43;;;;;;;0.93;0.45;;;;;;;11.11;100.00;98851.13;5073078;28;20312;-74
2024/01/22 10:52:09;;;;;;;3.72;0.68;;;;;;;11.30;100.00;98861.13;5076643;28;20107;-72
2024/01/22 10:54:35;;;;;;;1.80;0.30;;;;;;;11.26;100.00;98853.63;5075979;28;20476;-71
2024/01/22 10:57:08;;;;;;;0.88;0.30;;;;;;;11.22;100.00;98849.69;5076976;28;20083;-68
2024/01/22 10:59:41;;;;;;;0.85;0.30;;;;;;;11.40;100.00;98855.31;5078293;28;20028;-70
2024/01/22 11:02:09;;;;;;;0.75;0.30;;;;;;;11.39;100.00;98853.63;5080833;28;20016;-69
2024/01/22 11:04:43;;;;;;;1.10;0.30;;;;;;;11.58;100.00;98858.25;5084275;28;20052;-69
2024/01/22 11:07:10;;;;;;;2.10;0.28;;;;;;;11.67;100.00;98837.19;5080223;28;20031;-69
2024/01/22 11:09:37;;;;;;;1.05;0.30;;;;;;;11.55;100.00;98820.72;5077145;28;20476;-69
2024/01/22 11:12:09;;;;;;;0.38;0.22;;;;;;;11.67;100.00;98834.47;5082445;28;20032;-69
2024/01/22 11:14:36;;;;;;;2.13;0.35;;;;;;;11.56;100.00;98813.44;5081435;28;20060;-69
2024/01/22 11:17:02;;;;;;;0.63;0.35;;;;;;;11.45;100.00;98804.06;5072866;28;20016;-69
2024/01/22 11:19:28;;;;;;;5.05;0.30;;;;;;;11.48;100.00;98830.72;5081842;28;20024;-69
2024/01/22 11:21:53;;;;;;;0.55;0.25;;;;;;;11.47;100.00;98806.53;5078630;28;20070;-69
2024/01/22 11:24:19;;;;;;;3.78;0.55;;;;;;;11.47;100.00;98791.13;5070921;28;20024;-69
2024/01/22 11:27:02;;;;;;;2.25;0.73;;;;;;;11.71;100.00;98819.47;5078112;28;20078;-69
2024/01/22 11:29:28;;;;;;;2.30;0.30;;;;;;;11.59;100.00;98810.28;5072652;28;20078;-69
2024/01/22 11:31:55;;;;;;;0.30;0.20;;;;;;;11.74;100.00;98799.25;5250574;22;20041;-54
2024/01/22 11:34:39;;;;;;;2.05;0.40;;;;;;;12.07;100.00;98796.47;5064567;28;20024;-62
2024/01/22 11:37:05;;;;;;;2.05;0.30;;;;;;;12.00;100.00;98803.81;5073269;28;20094;-65